KBPT/BPT METAR and TAF weather

Enter ICAO airport designator
Station Type Date Time Source
KBPT METAR 2019/08/19 22:53 UTC NOAA

KBPT 192253Z 20007KT 9SM FEW025 32/25 A2997 RMK AO2 LTG DSNT NE SLP148 T03170250


Station Type Date Time Source
KBPT Decoded METAR 2019/08/19 22:53 UTC NOAA

SOUTHEAST TEXAS RGNL AIRPORT, TX, United States (KBPT) 29-95N 094-08W 5M
Aug 19, 2019 - 06:53 PM EDT / 2019.08.19 2253 UTC
Wind: from the SSW (200 degrees) at 8 MPH (7 KT):0
Visibility: 9 mile(s):0
Sky conditions: mostly clear
Weather: Lightning observed
Temperature: 89.1 F (31.7 C)
Heat index: 101.5 F (38.6 C):1
Dew Point: 77.0 F (25.0 C)
Relative Humidity: 67%
Pressure (altimeter): 29.97 in. Hg (1014 hPa)
ob: KBPT 192253Z 20007KT 9SM FEW025 32/25 A2997 RMK AO2 LTG DSNT NE SLP148 T03170250
cycle: 23

Station Type Date Time Source
KBPT TAF 2019/08/19 18:36 UTC NOAA

TAF KBPT 191733Z 1918/2018 19008KT P6SM VCTS SCT030CB BKN150
TEMPO 1918/1922 3SM TSRA BKN025CB OVC035
FM200200 17005KT P6SM FEW035 BKN250
FM201400 VRB03KT P6SM VCSH SCT025

Example: see airport list